Le Roy, IL (61752)

1:11 AM CDT on September 02, 2014 (GMT -0500)
LeRoy Fertilizer | Change Station
CLOSE
Current Station
Personal Weather Station
Location: Le Roy, IL
Elevation: 784 ft
Nearby Weather Stations

Elev 784 ft 40.35 °N, 88.77 °W | Updated 11 minutes ago

Overcast
Overcast
69.5 °F
Feels Like 69.5 °F
N
2.0
Wind Variable Wind from SSW
Gusts 4.0 mph

Today
High -- | Low -- °F
--% Chance of Precip.
Yesterday
High -- | Low -- °F
Precip. -- in
6:23 AM 7:25 PM
Waxing Crescent, 48% visible
Pressure 29.87 in
Visibility 10.0 miles
Clouds Clear
Dew Point 68 °F
Humidity 95%
Rainfall 0.00 in
Snow Depth Not available.
UV 0 out of 12
Pollen 9.90 out of 12
Air Quality Not available.
Flu Activity Not available.
METAR KBMI 020556Z AUTO 23009KT 10SM CLR 21/19 A2991 RMK AO2 50005 T02110188 10244 20205 402720205 SLP115

More Conditions Fewer Conditions

Pressure 29.87 in
Visibility 10.0 miles
Clouds Clear
Dew Point 68 °F
Humidity 95%
Rainfall 0.00 in
Snow Depth Not available.
UV 0 out of 12
Pollen 9.90 out of 12
Air Quality Not available.
Flu Activity Not available.
METAR KBMI 020556Z AUTO 23009KT 10SM CLR 21/19 A2991 RMK AO2 50005 T02110188 10244 20205 402720205 SLP115

More Conditions Fewer Conditions

10-Day Weather Forecast

Almanac

Astronomy

Sep. 02, 2014 Rise Set
Actual Time 6:23 AM CDT 7:25 PM CDT
Civil Twilight 5:55 AM CDT 7:53 PM CDT
Nautical Twilight 5:22 AM CDT 8:26 PM CDT
Astronomical Twilight 4:47 AM CDT 9:00 PM CDT
Moon 2:08 PM CDT No Moon Set
Length of Visible Light 13h 57m
Length of Day
13h 01m
Tomorrow will be 2m 35s shorter.
Waxing Crescent, 48% of the Moon is Illuminated
Today
Waxing Crescent
Sep 2
First Quarter
Sep 8
Full
Sep 15
Last Quarter
Sep 24
New

Today's Extremes

State Highs State Lows

Community

WunderPhotos

Upload Photos

1,749,581 photos uploaded!

WunderBlogs® & News

Nearby

Snow Depth

Station Depth Elevation
No new snow has been reported.

Earthquake Activity

City Distance Mag. Time & Date
No recent earthquake activity has been reported nearby.
Minimum magnitude displayed is 2.5.

Coastal Water Temperatures

Place Temperature
No Stations Reporting

Nearby Weather Stations